EmailTwitter


Surface observations / Quebec / CYSC

Regions: Quebec | Canada | USA | Europe | France | UK | Elsewhere
Station
Display
Info & Location for CYSC | Help decoding METAR

Weather Conditions observed on 2018/02/18 at 03:00 UTC at SHERBROOKE, QB (CYSC)

Sky conditions: clear.

Temperature: -2.0 Celsius.

Dewpoint: -15.0 Celsius.

Relative Humidity: 36%

Windchill Factor: -6.

Winds: South at 11 km/h or 6 knots.

Mean Sea level Pressure: 101.72 kilopascals.

Altimeter Setting (QNH): 101.56 kilopascals or 29.99 inches of mercury.

Horizontal visibility: 9.00 statute miles or 14.40 kilometers.

Coded METAR:

CYSC 180300Z AUTO 17006KT 9SM CLR M02/M15 A2999 RMK SLP172=